Time;durP1;ratioP1;P1;durP2;ratioP2;P2;SDS_P1;SDS_P2;PMS_P1;PMS_P2;Temp;Humidity;BMP_temperature;BMP_pressure;BME280_temperature;BME280_humidity;BME280_pressure;Samples;Min_cycle;Max_cycle;Signal;HPM_P1;HPM_P2
2022/07/27 05:45:10;;;;;;;2.45;1.30;;;15.40;99.90;;;-144.05;62.96;125687.94;5023352;28;20081;-85
2022/07/27 05:47:57;;;;;;;;;;;;;;;;;;;;;
2022/07/27 05:50:34;;;;;;;5.70;1.95;;;16.10;99.90;;;-144.05;59.14;125687.94;5037125;28;20053;-88
2022/07/27 05:53:08;;;;;;;4.88;1.58;;;16.20;99.90;;;-144.05;58.07;125687.94;5030614;28;20072;-90
2022/07/27 05:55:58;;;;;;;8.50;1.45;;;16.30;99.90;;;-144.05;57.87;125687.94;5027142;28;20079;-90
2022/07/27 05:58:53;;;;;;;6.45;1.55;;;16.50;99.90;;;-144.05;57.64;125687.94;5023421;28;20030;-90
2022/07/27 06:01:19;;;;;;;5.97;1.40;;;16.60;99.90;;;-144.05;56.35;125687.94;5041063;28;20029;-90
2022/07/27 06:04:16;;;;;;;8.10;1.83;;;16.80;99.90;;;-144.05;55.26;125687.94;5026533;28;20051;-90
2022/07/27 06:10:21;;;;;;;10.57;1.75;;;17.40;99.90;;;-144.05;53.59;125687.94;5031549;28;20037;-90
2022/07/27 06:12:53;;;;;;;5.95;1.65;;;17.70;99.90;;;-144.05;53.30;125687.94;5026678;28;20014;-90
2022/07/27 06:15:31;;;;;;;7.45;1.65;;;17.80;99.90;;;-144.05;52.78;125687.94;5030345;28;20074;-89
2022/07/27 06:18:16;;;;;;;7.82;1.70;;;18.10;99.90;;;-144.05;52.42;125687.94;5028456;28;20029;-88
2022/07/27 06:20:51;;;;;;;8.23;1.52;;;18.10;99.90;;;-144.05;51.66;125687.94;5044917;28;20026;-89
2022/07/27 06:23:29;;;;;;;7.82;1.23;;;18.20;99.90;;;-144.05;51.24;125687.94;5042589;28;20406;-90
2022/07/27 06:26:01;;;;;;;9.32;1.55;;;18.40;99.90;;;-144.05;51.35;125687.94;5023415;28;20038;-91
2022/07/27 06:28:38;;;;;;;6.18;1.73;;;18.50;99.90;;;-144.05;50.59;125687.94;5027572;28;20022;-88
2022/07/27 06:31:34;;;;;;;;;;;;;;;;;;;;;
2022/07/27 06:34:11;;;;;;;7.32;1.73;;;18.60;99.90;;;-144.05;49.84;125687.94;5028191;28;20057;-88
2022/07/27 06:36:42;;;;;;;5.50;1.55;;;18.60;99.90;;;-144.05;49.79;125687.94;5043496;28;20033;-89
2022/07/27 06:39:19;;;;;;;5.72;1.10;;;18.60;99.90;;;-144.05;49.93;125687.94;5029115;28;20034;-90
2022/07/27 06:41:51;;;;;;;4.57;1.27;;;18.70;99.90;;;-144.05;49.61;125687.94;5043208;28;20487;-91
2022/07/27 06:44:40;;;;;;;2.80;1.10;;;19.00;99.90;;;-144.05;48.12;125687.94;5039137;28;20503;-90
2022/07/27 06:47:32;;;;;;;3.20;0.73;;;19.20;99.90;;;-144.05;47.79;125687.94;5027570;28;20053;-89
2022/07/27 06:50:07;;;;;;;3.67;1.08;;;19.40;99.90;;;-144.05;47.26;125687.94;5027953;28;20034;-89
2022/07/27 06:52:43;;;;;;;5.25;1.38;;;19.70;99.90;;;-144.05;46.67;125687.94;5044664;28;20034;-91
2022/07/27 06:55:36;;;;;;;7.07;1.20;;;19.90;99.90;;;-144.05;45.64;125687.94;5045012;28;20037;-89
2022/07/27 06:58:23;;;;;;;5.95;1.30;;;20.00;99.90;;;-144.05;45.12;125687.94;5026921;28;20033;-88
2022/07/27 07:01:23;;;;;;;4.97;0.80;;;20.20;99.90;;;-144.05;44.68;125687.94;5025316;28;20464;-90
2022/07/27 07:03:54;;;;;;;5.93;0.90;;;20.20;99.90;;;-144.05;43.94;125687.94;5022542;28;20033;-91
2022/07/27 07:06:40;;;;;;;;;;;;;;;;;;;;;
2022/07/27 07:09:14;;;;;;;1.40;0.52;;;20.30;99.90;;;-144.05;43.43;125687.94;5024320;28;20094;-88
2022/07/27 07:11:47;;;;;;;5.78;0.90;;;20.60;99.90;;;-144.05;42.14;125687.94;5026146;28;20050;-85
2022/07/27 07:14:24;;;;;;;3.47;0.85;;;21.00;99.90;;;-144.05;40.91;125687.94;5018440;28;20042;-89
2022/07/27 07:16:55;;;;;;;2.30;0.82;;;21.00;99.90;;;-144.05;41.72;125687.94;5000317;28;20504;-85
2022/07/27 07:19:22;;;;;;;5.63;0.93;;;21.40;99.90;;;-144.05;39.67;125687.94;5014007;28;20019;-85
2022/07/27 07:21:48;;;;;;;2.78;0.77;;;21.60;99.90;;;-144.05;38.86;125687.94;5014194;28;20037;-87
2022/07/27 07:24:36;;;;;;;;;;;;;;;;;;;;;
2022/07/27 07:27:22;;;;;;;6.20;0.82;;;21.90;99.90;;;-144.05;37.52;125687.94;5008739;28;20069;-88
2022/07/27 07:29:51;;;;;;;2.65;0.77;;;22.10;99.90;;;-144.05;37.80;125687.94;5007129;28;20428;-87
2022/07/27 07:35:16;;;;;;;5.32;1.00;;;22.10;98.20;;;-144.05;38.34;125687.94;5007818;28;20030;-89
2022/07/27 07:37:47;;;;;;;2.95;0.40;;;21.30;98.60;;;-144.05;39.16;125687.94;5017895;28;20388;-89
2022/07/27 07:40:22;;;;;;;1.20;0.52;;;21.30;99.90;;;-144.05;38.79;125687.94;5016459;28;20069;-91
2022/07/27 07:43:22;;;;;;;4.78;0.50;;;21.20;99.90;;;-144.05;37.72;125687.94;4999553;28;20447;-86
2022/07/27 07:46:00;;;;;;;1.42;0.50;;;21.20;99.80;;;-144.05;38.56;125687.94;4994384;28;20077;-86
2022/07/27 07:48:33;;;;;;;4.68;0.63;;;21.10;99.90;;;-144.05;39.32;125687.94;5018342;28;20041;-86
2022/07/27 07:51:03;;;;;;;1.58;0.45;;;20.60;99.90;;;-144.05;40.03;125687.94;5002155;28;20030;-87
2022/07/27 07:53:38;;;;;;;2.05;0.70;;;20.50;99.90;;;-144.05;38.98;125687.94;5006639;28;20030;-85
2022/07/27 07:56:19;;;;;;;1.08;0.55;;;21.00;99.90;;;-144.05;36.96;125687.94;5003557;28;20042;-90
2022/07/27 07:59:03;;;;;;;0.77;0.35;;;21.70;98.00;;;-144.05;34.44;125687.94;4988517;28;20407;-87
2022/07/27 08:02:01;;;;;;;1.77;0.52;;;22.20;94.60;;;-144.05;34.53;125687.94;5007414;28;20037;-89
2022/07/27 08:04:35;;;;;;;2.97;0.55;;;22.50;93.10;;;-144.05;34.41;125687.94;5008230;28;20042;-88
2022/07/27 08:07:21;;;;;;;1.83;0.50;;;22.90;92.30;;;-144.05;35.42;125687.94;5007619;28;20026;-88
2022/07/27 08:09:48;;;;;;;;;;;22.10;91.90;;;-144.05;36.87;125687.94;5005782;28;20041;-89
2022/07/27 08:12:39;;;;;;;;;;;22.00;94.80;;;-144.05;35.75;125687.94;5025266;28;19898;-87
2022/07/27 08:15:20;;;;;;;2.72;0.40;;;22.60;94.20;;;-144.05;35.44;125687.94;5007660;28;20045;-92
2022/07/27 08:18:12;;;;;;;3.22;0.60;;;22.50;92.90;;;-144.05;35.95;125687.94;5025201;28;20058;-90
2022/07/27 08:21:15;;;;;;;5.85;0.90;;;21.80;93.20;;;-144.05;35.97;125687.94;5002331;28;20038;-89
2022/07/27 08:23:49;;;;;;;4.25;0.70;;;22.20;93.90;;;-144.05;35.45;125687.94;5023283;28;20031;-89
2022/07/27 08:26:32;;;;;;;2.85;0.63;;;22.60;93.20;;;-144.05;36.12;125687.94;5027615;28;20033;-91
2022/07/27 08:29:35;;;;;;;3.60;0.70;;;22.10;92.50;;;-144.05;37.39;125687.94;5008656;28;20080;-88
2022/07/27 08:32:04;;;;;;;4.80;0.57;;;21.40;94.90;;;-144.05;38.53;125687.94;5023997;28;20093;-85
2022/07/27 08:34:32;;;;;;;3.78;0.80;;;20.80;95.70;;;-144.05;38.96;125687.94;5022895;28;20084;-87
2022/07/27 08:37:10;;;;;;;5.03;0.85;;;20.30;96.70;;;-144.05;38.41;125687.94;5023722;28;20044;-89
2022/07/27 08:39:57;;;;;;;4.03;0.70;;;20.50;97.20;;;-144.05;37.37;125687.94;5025128;28;20093;-87
2022/07/27 08:42:50;;;;;;;6.18;0.73;;;20.80;96.40;;;-144.05;35.55;125687.94;5024552;28;20125;-89
2022/07/27 08:45:26;;;;;;;2.45;0.50;;;21.30;93.30;;;-144.05;35.85;125687.94;5027733;28;20034;-86
2022/07/27 08:48:35;;;;;;;1.05;0.40;;;21.50;93.50;;;-144.05;36.11;125687.94;5028017;28;20066;-86
2022/07/27 08:51:21;;;;;;;2.58;0.68;;;21.50;93.10;;;-144.05;36.63;125687.94;5024267;28;20027;-89
2022/07/27 08:54:17;;;;;;;0.98;0.40;;;21.30;92.80;;;-144.05;37.21;125687.94;5025281;28;20504;-87
2022/07/27 08:56:59;;;;;;;0.90;0.40;;;20.70;93.90;;;-144.05;36.93;125687.94;5024163;28;20053;-86
2022/07/27 08:59:36;;;;;;;1.55;0.50;;;20.40;93.20;;;-144.05;37.18;125687.94;5022604;28;20022;-88
2022/07/27 09:02:20;;;;;;;2.55;0.40;;;20.20;93.80;;;-144.05;38.35;125687.94;5022807;28;20034;-89
2022/07/27 09:08:20;;;;;;;1.63;0.40;;;19.80;93.60;;;-144.05;37.48;125687.94;5011282;28;20116;-86
2022/07/27 09:10:53;;;;;;;2.10;0.60;;;19.60;93.80;;;-144.05;37.94;125687.94;5024897;28;20119;-87
2022/07/27 09:13:40;;;;;;;4.25;0.80;;;19.70;94.70;;;-144.05;38.51;125687.94;5031043;28;20034;-86
2022/07/27 09:16:16;;;;;;;2.30;0.52;;;19.70;95.60;;;-144.05;39.00;125687.94;5035590;28;20046;-88
2022/07/27 09:19:19;;;;;;;;;;;19.70;96.80;;;-144.05;40.19;125687.94;5050966;28;20026;-87
2022/07/27 09:21:51;;;;;;;3.60;0.65;;;19.50;99.40;;;-144.05;39.58;125687.94;5035068;28;19909;-90
2022/07/27 09:24:20;;;;;;;3.03;0.98;;;19.60;98.60;;;-144.05;39.20;125687.94;5032752;28;20041;-87
2022/07/27 09:27:08;;;;;;;2.80;0.60;;;19.80;98.80;;;-144.05;39.26;125687.94;5033023;28;20550;-88
2022/07/27 09:29:44;;;;;;;2.90;0.85;;;19.90;98.70;;;-144.05;38.99;125687.94;5047666;28;20038;-88
2022/07/27 09:32:20;;;;;;;3.45;0.65;;;20.00;98.10;;;-144.05;38.29;125687.94;5031457;28;20025;-88
2022/07/27 09:34:48;;;;;;;;;;;20.10;97.00;;;-144.05;37.42;125687.94;5048129;28;20026;-86
2022/07/27 09:37:33;;;;;;;2.05;0.50;;;20.30;95.20;;;-144.05;36.87;125687.94;5025732;28;19932;-89
2022/07/27 09:40:19;;;;;;;1.73;0.57;;;20.30;94.10;;;-144.05;36.43;125687.94;5027174;28;20036;-87
2022/07/27 09:43:15;;;;;;;3.65;0.88;;;20.70;94.40;;;-144.05;34.51;125687.94;5029891;28;20037;-90
2022/07/27 09:45:52;;;;;;;2.78;0.70;;;22.00;92.00;;;-144.05;31.54;125687.94;5030609;28;20030;-90
2022/07/27 09:48:51;;;;;;;3.17;0.85;;;22.90;82.70;;;-144.05;31.50;125687.94;5027213;28;20081;-88
2022/07/27 09:51:24;;;;;;;5.28;0.65;;;23.30;80.90;;;-144.05;30.88;125687.94;5041940;28;20022;-86
2022/07/27 09:54:07;;;;;;;4.13;0.70;;;23.70;78.20;;;-144.05;31.55;125687.94;5022554;28;20121;-89
2022/07/27 09:56:43;;;;;;;3.40;0.70;;;23.20;78.20;;;-144.05;32.88;125687.94;5041879;28;20037;-89
2022/07/27 09:59:32;;;;;;;1.13;0.57;;;22.30;79.90;;;-144.05;34.34;125687.94;5023401;28;20030;-90
2022/07/27 10:02:14;;;;;;;2.83;0.82;;;21.50;83.30;;;-144.05;34.63;125687.94;5024446;28;20044;-90
2022/07/27 10:04:53;;;;;;;1.73;0.50;;;21.00;84.70;;;-144.05;35.63;125687.94;5105659;23;20057;-88
2022/07/27 10:07:31;;;;;;;3.88;0.68;;;20.70;88.60;;;-144.05;36.02;125687.94;5036925;28;20455;-86
2022/07/27 10:10:29;;;;;;;3.50;0.80;;;20.40;90.00;;;-144.05;36.07;125687.94;5052966;28;20033;-88
2022/07/27 10:13:25;;;;;;;2.60;0.73;;;20.30;90.50;;;-144.05;36.34;125687.94;5031155;28;20029;-89
2022/07/27 10:16:03;;;;;;;1.48;0.60;;;20.20;90.70;;;-144.05;36.83;125687.94;5030068;28;20033;-87
2022/07/27 10:19:11;;;;;;;3.13;0.50;;;20.10;92.10;;;-144.05;35.54;125687.94;5047252;28;20048;-91
2022/07/27 10:21:58;;;;;;;3.22;0.82;;;20.20;89.50;;;-144.05;35.12;125687.94;5027846;28;20096;-89
2022/07/27 10:25:09;;;;;;;2.03;0.47;;;20.30;88.60;;;-144.05;34.72;125687.94;5028682;28;20025;-91
2022/07/27 10:27:35;;;;;;;2.42;0.70;;;20.50;88.40;;;-144.05;35.96;125687.94;5045737;28;20064;-88
2022/07/27 10:30:04;;;;;;;3.67;0.68;;;20.60;90.40;;;-144.05;35.36;125687.94;5041708;28;20036;-89
2022/07/27 10:32:33;;;;;;;2.85;0.80;;;20.90;89.20;;;-144.05;34.55;125687.94;5023796;28;20025;-89
2022/07/27 10:35:02;;;;;;;0.82;0.40;;;21.60;89.60;;;-144.05;32.45;125687.94;5045062;28;20022;-88
2022/07/27 10:37:33;;;;;;;2.08;0.50;;;22.90;82.50;;;-144.05;30.89;125687.94;5045439;28;20022;-88
2022/07/27 10:43:39;;;;;;;4.28;0.80;;;23.80;76.20;;;-144.05;30.77;125687.94;5041132;28;20131;-87
2022/07/27 10:46:05;;;;;;;1.75;0.55;;;23.50;73.70;;;-144.05;31.47;125687.94;5006751;28;20045;-87
2022/07/27 10:48:41;;;;;;;3.80;0.90;;;23.10;75.10;;;-144.05;32.33;125687.94;5040502;28;20091;-89
2022/07/27 10:51:14;;;;;;;3.65;0.95;;;22.50;77.40;;;-144.05;32.82;125687.94;5041887;28;20033;-88
2022/07/27 10:53:44;;;;;;;7.00;1.10;;;22.50;79.70;;;-144.05;33.19;125687.94;5040870;28;20028;-87
2022/07/27 10:56:10;;;;;;;2.90;0.70;;;22.50;79.40;;;-144.05;32.30;125687.94;5048361;28;20025;-86
2022/07/27 10:58:36;;;;;;;5.50;0.95;;;22.60;77.70;;;-144.05;31.60;125687.94;5030382;28;20060;-88
2022/07/27 11:01:07;;;;;;;2.25;0.82;;;22.50;74.80;;;-144.05;30.93;125687.94;5025261;28;20041;-91
2022/07/27 11:03:38;;;;;;;5.35;1.10;;;22.30;72.40;;;-144.05;31.93;125687.94;5038087;28;20029;-88
2022/07/27 11:06:31;;;;;;;3.83;0.80;;;22.00;74.00;;;-144.05;32.26;125687.94;5037746;28;20053;-88
2022/07/27 11:09:00;;;;;;;4.30;0.75;;;21.80;75.10;;;-144.05;32.92;125687.94;5020341;28;20037;-90
2022/07/27 11:11:27;;;;;;;2.95;1.00;;;21.90;78.10;;;-144.05;31.58;125687.94;5021648;28;20029;-89
2022/07/27 11:13:57;;;;;;;2.47;0.70;;;22.60;74.20;;;-144.05;30.37;125687.94;5038248;28;20026;-89
2022/07/27 11:16:27;;;;;;;3.03;0.77;;;23.70;71.10;;;-144.05;29.18;125687.94;5038117;28;20040;-90
2022/07/27 11:19:03;;;;;;;3.83;0.85;;;24.60;66.50;;;-144.05;28.24;125687.94;5024683;28;20025;-90
2022/07/27 11:21:38;;;;;;;3.97;0.70;;;25.30;65.00;;;-144.05;28.28;125687.94;5039506;28;20026;-91
2022/07/27 11:24:15;;;;;;;4.05;0.98;;;25.20;63.70;;;-144.05;28.96;125687.94;5027785;28;20029;-91
2022/07/27 11:26:49;;;;;;;2.50;0.77;;;24.70;65.20;;;-144.05;30.21;125687.94;5045324;28;20038;-91
2022/07/27 11:29:19;;;;;;;1.52;0.75;;;24.00;67.80;;;-144.05;30.70;125687.94;5043887;28;20072;-90
2022/07/27 11:31:53;;;;;;;2.63;0.90;;;23.30;68.90;;;-144.05;31.75;125687.94;5045276;28;20081;-91
2022/07/27 11:34:34;;;;;;;1.98;0.60;;;22.80;71.10;;;-144.05;31.56;125687.94;5041974;28;20112;-89
2022/07/27 11:37:12;;;;;;;2.42;0.80;;;22.50;70.70;;;-144.05;31.92;125687.94;5039682;28;20064;-89
2022/07/27 11:39:38;;;;;;;4.50;0.90;;;21.90;70.90;;;-144.05;31.80;125687.94;5038442;28;20025;-90
2022/07/27 11:42:05;;;;;;;3.67;0.80;;;21.60;71.30;;;-144.05;32.55;125687.94;5038564;28;20040;-91
2022/07/27 11:44:31;;;;;;;3.28;0.98;;;21.40;73.00;;;-144.05;33.00;125687.94;5036836;28;20455;-87
2022/07/27 11:46:58;;;;;;;1.90;0.80;;;21.40;74.50;;;-144.05;32.76;125687.94;5018224;28;20033;-89
2022/07/27 11:49:30;;;;;;;3.30;0.80;;;21.40;74.60;;;-144.05;32.38;125687.94;5035766;28;20028;-89
2022/07/27 11:52:07;;;;;;;3.40;1.02;;;21.40;73.00;;;-144.05;32.77;125687.94;5038011;28;20475;-87
2022/07/27 11:54:40;;;;;;;3.15;1.00;;;21.60;74.60;;;-144.05;32.38;125687.94;5037883;28;20029;-91
2022/07/27 11:57:11;;;;;;;3.00;0.63;;;21.60;74.10;;;-144.05;32.22;125687.94;5035469;28;20025;-89
2022/07/27 11:59:44;;;;;;;2.10;0.73;;;21.80;71.70;;;-144.05;31.68;125687.94;5040700;28;20033;-88
2022/07/27 12:02:19;;;;;;;4.43;0.98;;;22.20;72.00;;;-144.05;31.40;125687.94;5044147;28;20036;-88
2022/07/27 12:04:51;;;;;;;2.72;1.00;;;22.30;70.40;;;-144.05;31.58;125687.94;5036062;28;20038;-88
2022/07/27 12:07:30;;;;;;;2.88;0.90;;;22.30;70.70;;;-144.05;32.25;125687.94;5023874;28;20033;-90
2022/07/27 12:10:05;;;;;;;3.88;1.00;;;22.10;72.50;;;-144.05;32.63;125687.94;5039137;28;20398;-89
2022/07/27 12:12:37;;;;;;;1.95;0.63;;;22.20;74.70;;;-144.05;31.98;125687.94;5038407;28;20095;-88
2022/07/27 12:15:19;;;;;;;3.17;0.88;;;22.60;71.00;;;-144.05;29.83;125687.94;5036267;28;20034;-89
2022/07/27 12:17:48;;;;;;;4.07;0.60;;;23.20;68.60;;;-144.05;29.34;125687.94;5036544;28;20030;-90
2022/07/27 12:20:19;;;;;;;2.75;0.75;;;24.10;66.70;;;-144.05;28.54;125687.94;5038601;28;20461;-87
2022/07/27 12:22:50;;;;;;;4.55;0.88;;;24.70;63.90;;;-144.05;28.21;125687.94;5037259;28;20025;-89
2022/07/27 12:25:16;;;;;;;3.58;1.02;;;25.10;62.70;;;-144.05;27.65;125687.94;5035895;28;20026;-90
2022/07/27 12:28:04;;;;;;;2.78;0.98;;;25.70;59.90;;;-144.05;27.64;125687.94;5018154;28;20049;-91
2022/07/27 12:30:51;;;;;;;3.58;1.13;;;25.60;60.80;;;-144.05;28.38;125687.94;5018096;28;20025;-88
2022/07/27 12:33:41;;;;;;;4.78;0.80;;;25.20;59.80;;;-144.05;28.21;125687.94;5034067;28;20037;-88
2022/07/27 12:36:09;;;;;;;4.43;0.90;;;25.40;61.50;;;-144.05;27.47;125687.94;5034505;28;20026;-87
2022/07/27 12:38:47;;;;;;;4.03;1.10;;;25.80;59.30;;;-144.05;28.90;125687.94;5039897;28;20563;-89
2022/07/27 12:41:35;;;;;;;3.03;0.82;;;24.90;60.70;;;-144.05;29.92;125687.94;5039346;28;20087;-88
2022/07/27 12:44:11;;;;;;;3.08;1.20;;;23.90;62.60;;;-144.05;30.31;125687.94;5040373;28;20091;-85
2022/07/27 12:47:00;;;;;;;3.05;0.88;;;23.00;64.30;;;-144.05;31.53;125687.94;5038705;28;20061;-85
2022/07/27 12:49:36;;;;;;;2.15;0.60;;;22.20;67.70;;;-144.05;32.68;125687.94;5048933;28;20084;-85
2022/07/27 12:52:08;;;;;;;3.03;0.95;;;21.70;69.70;;;-144.05;32.71;125687.94;5030691;28;20045;-85
2022/07/27 12:54:37;;;;;;;4.40;1.10;;;21.60;71.10;;;-144.05;33.47;125687.94;5040267;28;20030;-90
2022/07/27 12:57:03;;;;;;;2.90;0.90;;;21.40;73.00;;;-144.05;34.17;125687.94;5024041;28;20049;-91
2022/07/27 12:59:29;;;;;;;2.70;0.80;;;21.30;74.00;;;-144.05;33.69;125687.94;5040241;28;20038;-89
2022/07/27 13:01:56;;;;;;;4.03;0.88;;;21.40;74.10;;;-144.05;33.25;125687.94;5039896;28;20351;-87
2022/07/27 13:04:22;;;;;;;5.57;1.05;;;21.50;73.10;;;-144.05;33.13;125687.94;5039272;28;20044;-88
2022/07/27 13:06:48;;;;;;;5.00;1.27;;;21.50;73.00;;;-144.05;32.69;125687.94;5041770;28;20563;-87
2022/07/27 13:09:17;;;;;;;2.40;0.90;;;22.00;72.40;;;-144.05;31.95;125687.94;5024771;28;20025;-87
2022/07/27 13:11:42;;;;;;;2.40;1.00;;;22.50;70.60;;;-144.05;31.29;125687.94;5042005;28;20022;-87
2022/07/27 13:14:08;;;;;;;4.40;1.00;;;22.30;68.30;;;-144.05;31.85;125687.94;5058941;28;20027;-87
2022/07/27 13:16:34;;;;;;;3.42;0.90;;;22.20;69.80;;;-144.05;32.19;125687.94;5059348;28;20090;-87
2022/07/27 13:19:00;;;;;;;2.83;1.02;;;22.10;71.10;;;-144.05;32.52;125687.94;5059107;28;20033;-89
2022/07/27 13:21:26;;;;;;;2.08;0.90;;;22.10;70.80;;;-144.05;32.21;125687.94;5058599;28;20115;-86
2022/07/27 13:23:52;;;;;;;4.07;0.80;;;22.00;70.60;;;-144.05;32.58;125687.94;5059254;28;20507;-86
2022/07/27 13:26:19;;;;;;;3.22;0.65;;;21.90;71.40;;;-144.05;32.83;125687.94;5062631;28;20037;-89
2022/07/27 13:28:47;;;;;;;4.25;1.00;;;21.80;72.00;;;-144.05;32.76;125687.94;5044722;28;20021;-88
2022/07/27 13:31:13;;;;;;;5.57;0.98;;;21.70;72.10;;;-144.05;32.66;125687.94;5042642;28;20021;-88
2022/07/27 13:33:39;;;;;;;4.70;1.20;;;21.60;71.50;;;-144.05;32.70;125687.94;5059105;28;20021;-90
2022/07/27 13:36:06;;;;;;;4.43;0.88;;;21.60;72.20;;;-144.05;32.51;125687.94;5060445;28;20496;-89
2022/07/27 13:38:32;;;;;;;2.90;0.70;;;21.50;71.60;;;-144.05;32.16;125687.94;5061250;28;20041;-88
2022/07/27 13:40:58;;;;;;;2.25;0.80;;;21.70;70.70;;;-144.05;32.73;125687.94;5060260;28;20041;-88
2022/07/27 13:43:24;;;;;;;1.83;0.70;;;21.80;73.90;;;-144.05;32.57;125687.94;5060191;28;20047;-89
2022/07/27 13:45:50;;;;;;;2.17;0.80;;;21.80;72.00;;;-144.05;32.92;125687.94;5045903;28;20440;-89
2022/07/27 13:48:18;;;;;;;1.27;0.88;;;21.90;72.40;;;-144.05;32.88;125687.94;5060287;28;20025;-89
2022/07/27 13:50:44;;;;;;;2.42;0.82;;;21.90;71.80;;;-144.05;32.76;125687.94;5060015;28;20417;-85
2022/07/27 13:53:14;;;;;;;7.53;0.77;;;21.90;73.20;;;-144.05;33.35;125687.94;5044795;28;20029;-88
2022/07/27 13:55:39;;;;;;;4.32;0.80;;;22.30;73.80;;;-144.05;32.29;125687.94;5061767;28;20033;-84
2022/07/27 13:58:06;;;;;;;2.70;0.75;;;22.90;72.10;;;-144.05;30.07;125687.94;5062586;28;20135;-88
2022/07/27 14:00:31;;;;;;;2.97;0.80;;;23.50;67.90;;;-144.05;29.78;125687.94;5044984;28;20044;-86
2022/07/27 14:02:57;;;;;;;2.65;0.68;;;23.70;65.00;;;-144.05;29.13;125687.94;5060010;28;20033;-86
2022/07/27 14:05:23;;;;;;;4.03;0.75;;;23.90;63.70;;;-144.05;29.11;125687.94;5059887;28;20064;-86
2022/07/27 14:07:49;;;;;;;3.97;1.00;;;24.10;62.80;;;-144.05;30.16;125687.94;5039747;28;20469;-85
2022/07/27 14:10:30;;;;;;;4.10;0.80;;;24.30;65.70;;;-144.05;28.67;125687.94;5058500;28;20025;-85
2022/07/27 14:13:04;;;;;;;2.95;0.60;;;24.50;61.70;;;-144.05;29.16;125687.94;5061351;28;20037;-85
2022/07/27 14:15:30;;;;;;;2.20;0.70;;;24.80;63.30;;;-144.05;28.49;125687.94;5060485;28;20055;-84
2022/07/27 14:17:56;;;;;;;2.75;0.90;;;24.80;61.80;;;-144.05;29.12;125687.94;5059851;28;20039;-86
2022/07/27 14:20:23;;;;;;;2.20;0.77;;;24.20;62.90;;;-144.05;29.95;125687.94;5058257;28;20044;-86
2022/07/27 14:22:50;;;;;;;2.28;0.50;;;23.70;64.60;;;-144.05;30.16;125687.94;5066156;28;20053;-84
2022/07/27 14:25:16;;;;;;;3.35;1.00;;;23.90;64.90;;;-144.05;29.81;125687.94;5042448;28;20063;-88
2022/07/27 14:27:42;;;;;;;3.42;0.70;;;24.20;64.40;;;-144.05;29.32;125687.94;5061590;28;20402;-87
2022/07/27 14:30:09;;;;;;;3.80;0.80;;;24.20;63.20;;;-144.05;29.57;125687.94;5056326;28;20063;-88
2022/07/27 14:32:36;;;;;;;2.45;0.80;;;23.90;63.40;;;-144.05;30.49;125687.94;5058754;28;20078;-87
2022/07/27 14:35:03;;;;;;;2.47;0.60;;;23.70;65.50;;;-144.05;30.23;125687.94;5059800;28;20033;-87
2022/07/27 14:37:29;;;;;;;3.70;0.77;;;23.70;64.80;;;-144.05;30.20;125687.94;5059293;28;20032;-87
2022/07/27 14:39:55;;;;;;;4.35;0.93;;;24.20;65.00;;;-144.05;29.67;125687.94;5043719;28;20021;-85
2022/07/27 14:42:29;;;;;;;1.98;0.57;;;24.50;64.90;;;-144.05;29.45;125687.94;5043775;28;20055;-85
2022/07/27 14:44:55;;;;;;;3.28;0.80;;;24.80;63.70;;;-144.05;28.50;125687.94;5067123;28;20066;-85
2022/07/27 14:47:22;;;;;;;3.47;0.98;;;25.10;61.10;;;-144.05;28.29;125687.94;5048645;28;20117;-92
2022/07/27 14:49:48;;;;;;;3.13;0.90;;;25.00;60.10;;;-144.05;28.37;125687.94;5042166;28;20081;-87
2022/07/27 14:52:17;;;;;;;3.38;0.80;;;24.80;60.00;;;-144.05;28.09;125687.94;5055731;28;20021;-89
2022/07/27 14:54:49;;;;;;;2.72;0.82;;;24.50;59.00;;;-144.05;28.57;125687.94;5041897;28;20029;-88
2022/07/27 14:57:15;;;;;;;4.28;0.70;;;24.40;59.80;;;-144.05;27.98;125687.94;5047989;28;20029;-89
2022/07/27 14:59:43;;;;;;;1.67;0.60;;;24.20;59.60;;;-144.05;29.18;125687.94;5045419;28;20390;-86
2022/07/27 15:02:10;;;;;;;4.25;1.20;;;24.50;61.80;;;-144.05;29.27;125687.94;5061558;28;20029;-86
2022/07/27 15:04:39;;;;;;;0.90;0.47;;;24.80;62.60;;;-144.05;28.57;125687.94;5060976;28;20066;-87
2022/07/27 15:07:06;;;;;;;2.20;0.75;;;25.00;60.10;;;-144.05;28.61;125687.94;5045962;28;20398;-88
2022/07/27 15:09:32;;;;;;;3.67;0.90;;;24.60;60.30;;;-144.05;28.95;125687.94;5061934;28;20106;-88
2022/07/27 15:11:59;;;;;;;3.85;1.15;;;24.50;61.10;;;-144.05;29.26;125687.94;5042099;28;20021;-89
2022/07/27 15:14:27;;;;;;;2.05;0.70;;;24.00;61.70;;;-144.05;29.88;125687.94;5059474;28;20036;-89
2022/07/27 15:16:55;;;;;;;3.20;0.50;;;23.60;62.70;;;-144.05;30.08;125687.94;5058843;28;20060;-87
2022/07/27 15:19:22;;;;;;;4.53;1.10;;;23.50;62.90;;;-144.05;29.71;125687.94;5060024;28;20033;-85
2022/07/27 15:21:51;;;;;;;2.83;0.98;;;23.50;63.20;;;-144.05;29.27;125687.94;5060708;28;20524;-88
2022/07/27 15:24:21;;;;;;;1.90;0.60;;;23.50;61.90;;;-144.05;29.81;125687.94;5043741;28;20033;-87
2022/07/27 15:26:47;;;;;;;2.17;0.60;;;23.60;63.40;;;-144.05;30.05;125687.94;5057318;28;20033;-88
2022/07/27 15:29:13;;;;;;;4.63;0.80;;;23.60;63.90;;;-144.05;29.73;125687.94;5040635;28;20029;-89
2022/07/27 15:31:39;;;;;;;1.88;0.90;;;23.80;63.00;;;-144.05;29.83;125687.94;5058818;28;20039;-87
2022/07/27 15:34:05;;;;;;;2.50;1.20;;;23.90;63.30;;;-144.05;29.71;125687.94;5057986;28;20049;-89
2022/07/27 15:36:31;;;;;;;3.92;0.80;;;24.10;63.30;;;-144.05;29.81;125687.94;5046698;28;20025;-89
2022/07/27 15:38:57;;;;;;;4.63;0.80;;;24.10;62.80;;;-144.05;29.52;125687.94;5063115;28;20028;-87
2022/07/27 15:41:23;;;;;;;3.17;1.00;;;24.10;62.10;;;-144.05;30.11;125687.94;5040299;28;20043;-88
2022/07/27 15:43:51;;;;;;;0.90;0.70;;;24.00;63.70;;;-144.05;29.99;125687.94;5058382;28;20029;-87
2022/07/27 15:46:17;;;;;;;3.13;0.90;;;24.10;63.40;;;-144.05;29.23;125687.94;5057782;28;20036;-87
2022/07/27 15:48:43;;;;;;;3.65;0.75;;;24.00;61.20;;;-144.05;29.34;125687.94;5056706;28;20044;-86
2022/07/27 15:51:10;;;;;;;4.05;0.63;;;23.90;61.80;;;-144.05;29.77;125687.94;5057776;28;20359;-86
2022/07/27 15:53:36;;;;;;;2.47;0.63;;;23.80;62.80;;;-144.05;29.72;125687.94;5058626;28;20032;-86
2022/07/27 15:56:02;;;;;;;2.80;0.70;;;23.80;62.10;;;-144.05;30.30;125687.94;5057682;28;20041;-90
2022/07/27 15:58:28;;;;;;;1.98;0.65;;;23.80;64.50;;;-144.05;29.93;125687.94;5043385;28;20280;-88
2022/07/27 16:00:58;;;;;;;2.72;0.77;;;23.70;62.70;;;-144.05;29.54;125687.94;5057909;28;20110;-89
2022/07/27 16:03:26;;;;;;;3.72;1.10;;;23.50;62.10;;;-144.05;29.97;125687.94;5081957;23;20140;-88
2022/07/27 16:05:52;;;;;;;2.10;0.73;;;23.30;63.00;;;-144.05;30.56;125687.94;5015294;28;20046;-87
2022/07/27 16:08:19;;;;;;;2.63;0.88;;;23.30;64.20;;;-144.05;30.04;125687.94;5015785;28;20254;-86
2022/07/27 16:10:47;;;;;;;2.03;0.70;;;23.40;63.70;;;-144.05;29.13;125687.94;5031889;28;20029;-85
2022/07/27 16:13:14;;;;;;;2.92;0.85;;;23.50;61.40;;;-144.05;29.27;125687.94;5031471;28;20088;-86
2022/07/27 16:18:28;;;;;;;;;;;23.40;62.00;;;-144.05;29.76;125687.94;5014546;28;20036;-86
2022/07/27 16:20:55;;;;;;;2.00;0.57;;;23.20;62.10;;;-144.05;30.01;125687.94;5014228;28;19916;-85
2022/07/27 16:23:22;;;;;;;4.65;1.00;;;23.00;62.20;;;-144.05;30.66;125687.94;5012784;28;20120;-84
2022/07/27 16:25:57;;;;;;;3.08;1.00;;;22.80;64.80;;;-144.05;31.56;125687.94;5013263;28;20137;-84
2022/07/27 16:28:26;;;;;;;3.78;1.20;;;22.30;65.70;;;-144.05;31.91;125687.94;5012893;28;20032;-85
2022/07/27 16:30:54;;;;;;;3.13;0.70;;;21.90;66.30;;;-144.05;32.59;125687.94;5012522;28;20079;-84
2022/07/27 16:33:21;;;;;;;2.78;0.75;;;21.60;67.80;;;-144.05;32.92;125687.94;5013014;28;20030;-83
2022/07/27 16:35:57;;;;;;;2.72;0.98;;;21.50;69.30;;;-144.05;33.04;125687.94;4996893;28;20176;-87